Time;durP1;ratioP1;P1;durP2;ratioP2;P2;SDS_P1;SDS_P2;PMS_P1;PMS_P2;Temp;Humidity;BMP_temperature;BMP_pressure;BME280_temperature;BME280_humidity;BME280_pressure;Samples;Min_cycle;Max_cycle;Signal;HPM_P1;HPM_P2
2023/07/22 00:00:37;;;;;;;3.30;2.97;;;16.30;99.90;;;;;;6185958;23;20412;-79
2023/07/22 00:03:29;;;;;;;3.90;2.93;;;16.20;99.90;;;;;;6185739;23;20431;-80
2023/07/22 00:06:23;;;;;;;2.87;2.67;;;16.20;99.90;;;;;;6145365;23;20940;-79
2023/07/22 00:09:15;;;;;;;3.57;3.27;;;16.10;99.90;;;;;;6185804;23;20426;-79
2023/07/22 00:12:01;;;;;;;3.73;3.43;;;16.20;99.90;;;;;;6185935;23;20443;-79
2023/07/22 00:14:35;;;;;;;4.53;3.97;;;16.20;99.90;;;;;;6185835;23;20780;-78
2023/07/22 00:17:29;;;;;;;3.20;2.90;;;16.10;99.90;;;;;;6186163;23;20530;-78
2023/07/22 00:23:18;;;;;;;3.67;3.30;;;16.00;99.90;;;;;;6187950;23;20418;-79
2023/07/22 00:26:21;;;;;;;3.97;3.67;;;16.00;99.90;;;;;;6192777;23;20428;-82
2023/07/22 00:29:00;;;;;;;3.17;2.97;;;16.00;99.90;;;;;;6194622;23;20410;-79
2023/07/22 00:31:38;;;;;;;3.83;3.10;;;16.00;99.90;;;;;;6196154;23;20470;-79
2023/07/22 00:34:30;;;;;;;;;;;;;;;;;;;;;
2023/07/22 00:37:22;;;;;;;3.57;3.27;;;15.90;99.90;;;;;;6194346;23;20712;-81
2023/07/22 00:40:09;;;;;;;4.40;3.30;;;15.90;99.90;;;;;;6193851;23;20490;-79
2023/07/22 00:45:57;;;;;;;3.70;3.40;;;15.90;99.90;;;;;;6189964;23;20432;-80
2023/07/22 00:48:51;;;;;;;3.80;3.20;;;15.90;99.90;;;;;;6191737;23;20445;-78
2023/07/22 00:51:38;;;;;;;3.33;3.10;;;15.90;99.90;;;;;;6186545;23;20498;-78
2023/07/22 00:54:20;;;;;;;3.20;2.90;;;16.00;99.90;;;;;;6191021;23;20415;-78
2023/07/22 00:56:59;;;;;;;4.27;3.70;;;15.80;99.90;;;;;;6199386;23;20420;-78
2023/07/22 00:59:41;;;;;;;4.20;3.43;;;15.80;99.90;;;;;;6198820;23;20407;-80
2023/07/22 01:02:35;;;;;;;3.40;3.20;;;15.80;99.90;;;;;;6197538;23;20415;-78
2023/07/22 01:08:07;;;;;;;2.97;2.77;;;15.70;99.90;;;;;;6185476;23;20392;-80
2023/07/22 01:10:54;;;;;;;3.57;2.93;;;15.70;99.90;;;;;;6195099;23;20406;-82
2023/07/22 01:13:39;;;;;;;3.60;3.30;;;15.60;99.90;;;;;;6186919;23;20420;-78
2023/07/22 01:16:11;;;;;;;3.27;3.07;;;15.60;99.90;;;;;;6186861;23;20439;-81
2023/07/22 01:18:43;;;;;;;3.37;3.07;;;15.60;99.90;;;;;;6187472;23;20481;-78
2023/07/22 01:21:21;;;;;;;3.33;3.10;;;15.50;99.90;;;;;;6191535;23;20411;-78
2023/07/22 01:24:00;;;;;;;3.30;3.00;;;15.50;99.90;;;;;;6188367;23;20411;-80
2023/07/22 01:26:43;;;;;;;3.80;3.50;;;15.60;99.90;;;;;;6191998;23;20392;-78
2023/07/22 01:29:28;;;;;;;3.77;3.50;;;15.50;99.90;;;;;;6200272;23;20411;-78
2023/07/22 01:32:22;;;;;;;4.33;3.93;;;15.50;99.90;;;;;;6191879;23;20423;-79
2023/07/22 01:35:00;;;;;;;3.50;3.20;;;15.20;99.90;;;;;;6190070;23;20862;-78
2023/07/22 01:37:41;;;;;;;3.77;3.43;;;15.20;99.90;;;;;;6189773;23;20411;-78
2023/07/22 01:43:10;;;;;;;4.43;4.03;;;15.20;99.90;;;;;;6186643;23;20770;-81
2023/07/22 01:45:54;;;;;;;3.83;3.53;;;15.30;99.90;;;;;;6188004;23;20450;-78
2023/07/22 01:48:36;;;;;;;3.80;3.50;;;15.30;99.90;;;;;;6187763;23;20411;-80
2023/07/22 01:51:14;;;;;;;4.40;4.10;;;15.40;99.90;;;;;;6188385;23;20497;-78
2023/07/22 01:53:53;;;;;;;4.47;3.57;;;15.30;99.90;;;;;;6188206;23;20427;-80
2023/07/22 01:56:36;;;;;;;4.47;4.03;;;15.20;99.90;;;;;;6188739;23;20439;-78
2023/07/22 01:59:08;;;;;;;3.90;3.50;;;15.20;99.90;;;;;;6188926;23;20796;-83
2023/07/22 02:01:44;;;;;;;3.30;3.10;;;15.20;99.90;;;;;;6190134;23;20420;-78
2023/07/22 02:04:16;;;;;;;4.10;3.80;;;15.10;99.90;;;;;;6192972;23;20431;-81
2023/07/22 02:06:49;;;;;;;3.70;3.37;;;15.10;99.90;;;;;;6195763;23;20419;-78
2023/07/22 02:09:20;;;;;;;3.70;3.40;;;15.10;99.90;;;;;;6195090;23;20498;-79
2023/07/22 02:11:50;;;;;;;3.53;3.23;;;15.10;99.90;;;;;;6195013;23;20521;-79
2023/07/22 02:14:27;;;;;;;4.17;3.77;;;15.10;99.90;;;;;;6195556;23;20827;-79
2023/07/22 02:17:03;;;;;;;4.00;3.70;;;15.00;99.90;;;;;;6195786;23;20462;-80
2023/07/22 02:19:43;;;;;;;3.90;3.60;;;15.00;99.90;;;;;;6194309;23;20435;-79
2023/07/22 02:22:14;;;;;;;4.53;3.67;;;15.00;99.90;;;;;;6195160;23;20490;-80
2023/07/22 02:24:46;;;;;;;3.63;3.43;;;15.00;99.90;;;;;;6195543;23;20466;-79
2023/07/22 02:27:56;;;;;;;3.80;3.50;;;15.00;99.90;;;;;;6195187;23;20421;-78
2023/07/22 02:30:27;;;;;;;3.40;3.20;;;15.00;99.90;;;;;;6176594;23;20447;-80
2023/07/22 02:33:02;;;;;;;4.13;3.80;;;15.00;99.90;;;;;;6203480;23;20434;-79
2023/07/22 02:35:33;;;;;;;3.77;3.47;;;15.00;99.90;;;;;;6201278;23;20450;-81
2023/07/22 02:38:10;;;;;;;3.40;3.13;;;14.90;99.90;;;;;;6200030;23;20442;-80
2023/07/22 02:40:43;;;;;;;5.63;3.70;;;14.90;99.90;;;;;;6199017;23;20780;-79
2023/07/22 02:43:23;;;;;;;3.70;3.50;;;14.90;99.90;;;;;;6192997;23;20407;-81
2023/07/22 02:46:00;;;;;;;4.03;3.73;;;14.80;99.90;;;;;;6189191;23;20514;-79
2023/07/22 02:48:39;;;;;;;3.73;3.43;;;14.80;99.90;;;;;;6188480;23;20415;-78
2023/07/22 02:51:13;;;;;;;4.10;3.70;;;14.80;99.90;;;;;;6188329;23;20426;-79
2023/07/22 02:53:46;;;;;;;4.10;3.80;;;14.80;99.90;;;;;;6188800;23;20427;-78
2023/07/22 02:56:20;;;;;;;4.53;3.60;;;14.80;99.90;;;;;;6190610;23;20439;-79
2023/07/22 02:59:03;;;;;;;3.80;3.50;;;14.70;99.90;;;;;;6190293;23;20418;-80
2023/07/22 03:01:49;;;;;;;4.33;3.93;;;14.70;99.90;;;;;;6190430;23;20483;-79
2023/07/22 03:04:29;;;;;;;4.50;4.03;;;14.60;99.90;;;;;;6190477;23;20431;-79
2023/07/22 03:07:06;;;;;;;4.37;4.00;;;14.60;99.90;;;;;;6191539;23;20893;-81
2023/07/22 03:09:39;;;;;;;6.03;4.23;;;14.60;99.90;;;;;;6192731;23;20415;-81
2023/07/22 03:12:14;;;;;;;5.27;4.13;;;14.50;99.90;;;;;;6199779;23;20475;-79
2023/07/22 03:14:49;;;;;;;5.73;4.13;;;14.50;99.90;;;;;;6196687;23;20497;-80
2023/07/22 03:17:29;;;;;;;4.63;4.07;;;14.50;99.90;;;;;;6189187;23;20470;-79
2023/07/22 03:20:00;;;;;;;4.03;3.73;;;14.50;99.90;;;;;;6185829;23;20494;-82
2023/07/22 03:22:37;;;;;;;4.90;4.27;;;14.50;99.90;;;;;;6185616;23;20470;-79
2023/07/22 03:25:16;;;;;;;6.00;3.70;;;14.40;99.90;;;;;;6186629;23;20438;-79
2023/07/22 03:27:57;;;;;;;4.30;4.00;;;14.50;99.90;;;;;;6186270;23;20427;-78
2023/07/22 03:30:50;;;;;;;4.30;3.60;;;14.50;99.90;;;;;;6186953;23;20411;-79
2023/07/22 03:33:31;;;;;;;4.63;4.23;;;14.50;99.90;;;;;;6186750;23;20421;-79
2023/07/22 03:36:16;;;;;;;4.17;3.77;;;14.40;99.90;;;;;;6185476;23;20537;-81
2023/07/22 03:38:59;;;;;;;4.37;4.00;;;14.40;99.90;;;;;;6186229;23;20526;-79
2023/07/22 03:41:47;;;;;;;5.50;3.67;;;14.40;99.90;;;;;;6186219;23;20411;-78
2023/07/22 03:44:29;;;;;;;4.23;3.93;;;14.40;99.90;;;;;;6189501;23;20427;-80
2023/07/22 03:47:27;;;;;;;4.00;3.70;;;14.40;99.90;;;;;;6190635;23;20411;-80
2023/07/22 03:50:03;;;;;;;3.97;3.67;;;14.40;99.90;;;;;;6190473;23;20395;-80
2023/07/22 03:55:49;;;;;;;4.73;4.23;;;14.30;99.90;;;;;;6182580;23;20443;-80
2023/07/22 04:01:34;;;;;;;4.50;4.10;;;14.20;99.90;;;;;;6186298;23;20414;-80
2023/07/22 04:04:23;;;;;;;4.17;3.87;;;14.20;99.90;;;;;;6190403;23;20435;-79
2023/07/22 04:07:26;;;;;;;3.97;3.67;;;14.20;99.90;;;;;;6191270;23;20454;-80
2023/07/22 04:10:09;;;;;;;6.20;3.90;;;14.20;99.90;;;;;;6187565;23;20435;-79
2023/07/22 04:13:10;;;;;;;4.40;4.07;;;14.20;99.90;;;;;;6188937;23;20429;-80
2023/07/22 04:15:50;;;;;;;4.30;4.00;;;14.20;99.90;;;;;;6189157;23;20433;-81
2023/07/22 04:18:38;;;;;;;3.93;3.73;;;14.20;99.90;;;;;;6189505;23;20415;-80
2023/07/22 04:21:30;;;;;;;5.03;4.47;;;14.10;99.90;;;;;;6189979;23;20415;-79
2023/07/22 04:24:16;;;;;;;4.73;4.33;;;14.10;99.90;;;;;;6188645;23;20435;-79
2023/07/22 04:27:10;;;;;;;5.00;4.67;;;14.10;99.90;;;;;;6189488;23;20438;-81
2023/07/22 04:33:23;;;;;;;4.80;4.40;;;13.90;99.90;;;;;;6189827;23;20445;-79
2023/07/22 04:36:10;;;;;;;;;;;;;;;;;;;;;
2023/07/22 04:39:19;;;;;;;;;;;;;;;;;;;;;
2023/07/22 04:42:03;;;;;;;4.43;4.03;;;14.20;99.90;;;;;;6191447;23;20403;-79
2023/07/22 04:44:49;;;;;;;4.70;3.87;;;14.30;99.90;;;;;;6190948;23;20415;-79
2023/07/22 04:48:06;;;;;;;4.40;4.10;;;14.30;99.90;;;;;;6198033;23;20392;-80
2023/07/22 04:50:50;;;;;;;4.83;4.43;;;14.30;99.90;;;;;;6193497;23;20526;-80
2023/07/22 04:53:36;;;;;;;4.03;3.77;;;14.40;99.90;;;;;;6193200;23;20462;-80
2023/07/22 04:59:16;;;;;;;3.90;3.60;;;14.60;99.90;;;;;;6187719;23;20395;-79
2023/07/22 05:01:58;;;;;;;4.40;4.00;;;14.80;99.90;;;;;;6196632;23;20418;-78
2023/07/22 05:04:42;;;;;;;4.17;3.77;;;14.70;99.90;;;;;;6196898;23;20431;-79
2023/07/22 05:07:33;;;;;;;3.93;3.63;;;14.70;99.90;;;;;;6175823;23;20426;-80
2023/07/22 05:10:23;;;;;;;4.20;3.90;;;14.70;99.90;;;;;;6200059;23;20398;-80
2023/07/22 05:13:16;;;;;;;5.43;4.33;;;14.80;99.90;;;;;;6202295;23;20407;-79
2023/07/22 05:18:52;;;;;;;4.10;3.80;;;15.00;99.90;;;;;;6195781;23;20885;-79
2023/07/22 05:21:39;;;;;;;3.67;3.47;;;15.00;99.90;;;;;;6193958;23;20486;-78
2023/07/22 05:24:48;;;;;;;5.00;4.50;;;15.10;99.90;;;;;;6193354;23;20427;-78
2023/07/22 05:27:36;;;;;;;5.80;4.10;;;15.20;99.90;;;;;;6187574;23;20413;-79
2023/07/22 05:34:15;;;;;;;3.70;3.40;;;15.40;99.90;;;;;;6171327;23;20411;-79
2023/07/22 05:36:55;;;;;;;3.73;3.53;;;15.50;99.90;;;;;;6157133;23;20527;-79
2023/07/22 05:39:36;;;;;;;4.40;3.87;;;15.60;99.90;;;;;;6187329;23;20477;-81
2023/07/22 05:42:54;;;;;;;3.80;3.53;;;15.70;99.90;;;;;;6188431;23;20622;-80
2023/07/22 05:45:50;;;;;;;4.50;4.10;;;15.70;99.90;;;;;;6189085;23;20446;-79
2023/07/22 05:52:07;;;;;;;4.40;4.00;;;15.90;99.90;;;;;;6186873;23;20419;-80
2023/07/22 05:54:55;;;;;;;3.97;3.67;;;16.10;99.90;;;;;;6189477;23;20423;-77
2023/07/22 05:57:54;;;;;;;4.07;3.77;;;16.20;99.90;;;;;;6189104;23;20514;-79
2023/07/22 06:00:44;;;;;;;4.13;3.83;;;16.30;99.90;;;;;;6180630;23;20835;-79
2023/07/22 06:03:19;;;;;;;4.60;3.27;;;16.30;99.90;;;;;;6188459;23;20427;-79
2023/07/22 06:06:11;;;;;;;4.00;3.70;;;16.40;99.90;;;;;;6188528;23;20439;-80
2023/07/22 06:08:52;;;;;;;3.93;3.57;;;16.30;99.90;;;;;;6188048;23;20419;-79
2023/07/22 06:11:40;;;;;;;4.60;4.00;;;16.40;99.90;;;;;;6189615;23;20415;-79
2023/07/22 06:14:29;;;;;;;4.93;4.53;;;16.60;99.90;;;;;;6189171;23;20466;-78
2023/07/22 06:20:39;;;;;;;4.53;3.70;;;16.60;99.90;;;;;;6071963;23;20898;-78
2023/07/22 06:23:18;;;;;;;4.40;4.10;;;16.80;99.90;;;;;;6192548;23;20506;-81
2023/07/22 06:25:51;;;;;;;4.00;3.50;;;16.80;99.90;;;;;;6195402;23;20447;-81
2023/07/22 06:28:26;;;;;;;4.10;3.80;;;17.10;99.90;;;;;;6194004;23;20434;-81
2023/07/22 06:30:59;;;;;;;4.60;4.07;;;17.20;99.90;;;;;;6194044;23;20413;-80
2023/07/22 06:33:48;;;;;;;4.50;4.10;;;17.20;99.90;;;;;;6194613;23;20495;-78
2023/07/22 06:36:16;;;;;;;4.87;4.47;;;17.20;99.90;;;;;;6194590;23;20417;-80
2023/07/22 06:38:47;;;;;;;4.30;4.00;;;17.30;99.90;;;;;;6192224;23;20422;-79
2023/07/22 06:44:13;;;;;;;3.90;3.60;;;17.90;99.90;;;;;;6193165;23;20725;-79
2023/07/22 06:46:44;;;;;;;3.90;3.60;;;17.70;99.90;;;;;;6190292;23;20389;-80
2023/07/22 06:49:20;;;;;;;4.80;4.27;;;18.10;99.90;;;;;;6189572;23;20416;-80
2023/07/22 06:51:49;;;;;;;4.13;3.83;;;18.00;99.90;;;;;;6187379;23;20415;-80
2023/07/22 06:54:18;;;;;;;4.63;3.67;;;18.00;99.90;;;;;;6189106;23;20458;-78
2023/07/22 06:56:46;;;;;;;4.07;3.77;;;18.10;99.90;;;;;;6191943;23;20463;-82
2023/07/22 06:59:26;;;;;;;3.87;3.57;;;18.20;99.90;;;;;;6206689;23;20408;-79
2023/07/22 07:02:06;;;;;;;5.77;3.83;;;18.30;99.90;;;;;;6203039;23;20448;-77
2023/07/22 07:04:39;;;;;;;4.13;3.73;;;18.30;99.90;;;;;;6197138;23;20511;-78
2023/07/22 07:07:06;;;;;;;3.97;3.63;;;18.40;99.90;;;;;;6196369;23;20408;-79
2023/07/22 07:09:37;;;;;;;3.83;3.53;;;18.40;99.90;;;;;;6197735;23;20416;-80
2023/07/22 07:12:19;;;;;;;3.50;3.30;;;18.60;99.90;;;;;;6197389;23;20468;-81
2023/07/22 07:14:54;;;;;;;8.07;3.87;;;18.50;99.90;;;;;;6195466;23;20524;-79
2023/07/22 07:17:34;;;;;;;3.90;3.60;;;18.50;99.90;;;;;;6193922;23;20440;-79
2023/07/22 07:20:11;;;;;;;5.30;3.33;;;18.70;99.90;;;;;;6195365;23;20444;-79
2023/07/22 07:22:46;;;;;;;3.93;3.63;;;18.90;99.90;;;;;;6195239;23;20416;-80
2023/07/22 07:25:17;;;;;;;4.97;3.60;;;19.30;99.90;;;;;;6200134;23;20433;-80
2023/07/22 07:28:12;;;;;;;3.70;3.40;;;19.20;99.90;;;;;;6200001;23;20416;-81
2023/07/22 07:30:51;;;;;;;3.97;3.40;;;19.20;99.90;;;;;;6196955;23;20448;-80
2023/07/22 07:36:44;;;;;;;5.60;4.03;;;19.40;99.90;;;;;;6192763;23;20410;-79
2023/07/22 07:39:19;;;;;;;4.37;3.80;;;19.70;99.90;;;;;;6194519;23;20410;-82
2023/07/22 07:41:52;;;;;;;4.00;3.70;;;19.70;99.90;;;;;;6196501;23;20409;-81
2023/07/22 07:44:56;;;;;;;4.40;3.60;;;19.80;99.90;;;;;;6195612;23;20470;-79
2023/07/22 07:47:28;;;;;;;4.73;3.70;;;20.00;99.90;;;;;;6196027;23;20411;-81
2023/07/22 07:50:03;;;;;;;6.27;3.33;;;20.00;99.90;;;;;;6170604;23;20438;-81
2023/07/22 07:52:31;;;;;;;5.37;3.93;;;20.20;99.90;;;;;;6195822;23;20504;-82
2023/07/22 07:54:59;;;;;;;3.70;3.37;;;20.30;99.90;;;;;;6195625;23;20437;-81
2023/07/22 07:57:31;;;;;;;3.70;3.10;;;20.40;99.90;;;;;;6198601;23;20435;-80
2023/07/22 07:59:59;;;;;;;3.27;3.03;;;20.50;99.90;;;;;;6198653;23;20366;-83
2023/07/22 08:02:36;;;;;;;3.70;3.40;;;20.60;99.90;;;;;;6201370;23;20410;-81
2023/07/22 08:08:06;;;;;;;3.53;3.10;;;21.00;99.90;;;;;;6183890;23;20403;-80
2023/07/22 08:10:50;;;;;;;6.13;3.20;;;21.10;99.90;;;;;;6197225;23;20403;-79
2023/07/22 08:13:38;;;;;;;3.80;3.50;;;21.20;99.90;;;;;;6192275;23;20438;-79
2023/07/22 08:16:15;;;;;;;2.90;2.50;;;21.40;99.90;;;;;;6193054;23;20925;-81
2023/07/22 08:18:46;;;;;;;2.97;2.30;;;21.50;99.90;;;;;;6190901;23;20546;-81
2023/07/22 08:21:15;;;;;;;2.47;2.27;;;21.60;99.90;;;;;;6192282;23;20412;-81
2023/07/22 08:23:46;;;;;;;4.57;2.53;;;21.70;99.90;;;;;;6191145;23;20388;-79
2023/07/22 08:26:36;;;;;;;;;;;;;;;;;;;;;
2023/07/22 08:39:04;;;;;;;2.10;1.90;;;22.50;99.90;;;;;;6067748;23;20516;-79
2023/07/22 08:41:49;;;;;;;2.63;2.40;;;22.60;99.90;;;;;;6112384;23;20416;-80
2023/07/22 08:44:26;;;;;;;4.10;2.13;;;22.70;99.90;;;;;;6194578;23;20817;-78
2023/07/22 08:47:09;;;;;;;;;;;;;;;;;;;;;
2023/07/22 08:49:57;;;;;;;1.67;1.57;;;23.00;99.90;;;;;;6196747;23;20368;-79
2023/07/22 08:55:15;;;;;;;1.67;1.57;;;23.50;99.90;;;;;;6179551;23;20462;-79
2023/07/22 08:57:58;;;;;;;2.23;2.10;;;23.70;99.90;;;;;;6195127;23;20817;-79
2023/07/22 09:00:58;;;;;;;2.20;2.10;;;23.60;99.90;;;;;;6197269;23;20411;-80
2023/07/22 09:03:38;;;;;;;3.43;2.40;;;23.90;99.90;;;;;;6188584;23;20411;-80
2023/07/22 09:06:16;;;;;;;2.00;1.90;;;24.00;99.90;;;;;;6193671;23;20765;-80
2023/07/22 09:08:50;;;;;;;1.87;1.77;;;23.70;99.90;;;;;;6192261;23;20792;-78
2023/07/22 09:11:26;;;;;;;1.73;1.63;;;23.60;99.90;;;;;;6192560;23;20775;-79
2023/07/22 09:13:59;;;;;;;2.07;1.97;;;23.80;99.90;;;;;;6194147;23;20392;-79
2023/07/22 09:17:08;;;;;;;1.90;1.80;;;23.90;99.90;;;;;;6194833;23;20446;-77
2023/07/22 09:19:51;;;;;;;1.97;1.87;;;23.80;99.90;;;;;;6195658;23;20434;-80
2023/07/22 09:22:29;;;;;;;1.87;1.77;;;23.70;99.90;;;;;;6197001;23;20422;-80
2023/07/22 09:29:15;;;;;;;2.53;2.33;;;23.70;99.90;;;;;;6166568;23;20402;-80
2023/07/22 09:32:20;;;;;;;2.90;2.50;;;24.00;99.90;;;;;;6165426;23;20426;-79
2023/07/22 09:38:17;;;;;;;3.27;2.97;;;24.00;99.90;;;;;;6195335;23;20519;-82
2023/07/22 09:41:31;;;;;;;2.83;2.17;;;24.10;99.90;;;;;;6196566;23;20443;-78
2023/07/22 09:44:24;;;;;;;2.40;2.30;;;24.40;99.90;;;;;;6198818;23;20426;-81
2023/07/22 09:47:13;;;;;;;2.07;1.97;;;24.80;99.90;;;;;;6191717;23;20414;-80
2023/07/22 09:50:02;;;;;;;2.03;1.83;;;24.70;99.90;;;;;;6193077;23;20496;-79
2023/07/22 09:52:35;;;;;;;2.03;1.93;;;24.40;99.90;;;;;;6193395;23;20425;-80
2023/07/22 09:55:24;;;;;;;2.50;1.73;;;24.40;99.90;;;;;;6194134;23;20499;-81
2023/07/22 09:57:58;;;;;;;2.53;1.97;;;24.30;99.90;;;;;;6196647;23;20450;-79
2023/07/22 10:03:56;;;;;;;1.80;1.70;;;24.20;99.90;;;;;;6179486;23;20407;-79
2023/07/22 10:06:28;;;;;;;1.70;1.60;;;24.60;99.90;;;;;;6194895;23;20477;-83
2023/07/22 10:08:57;;;;;;;1.90;1.80;;;24.80;99.90;;;;;;6195722;23;20406;-79
2023/07/22 10:11:32;;;;;;;1.60;1.50;;;25.10;99.40;;;;;;6196580;23;20418;-78
2023/07/22 10:14:19;;;;;;;1.47;1.37;;;25.10;98.80;;;;;;6194226;23;20426;-79
2023/07/22 10:17:04;;;;;;;2.27;2.07;;;25.20;97.30;;;;;;6198236;23;20396;-79
2023/07/22 10:19:39;;;;;;;1.70;1.70;;;25.20;97.40;;;;;;6199398;23;20447;-80
2023/07/22 10:22:18;;;;;;;1.80;1.50;;;25.40;97.20;;;;;;6200956;23;20458;-78
2023/07/22 10:27:44;;;;;;;1.73;1.63;;;24.90;95.80;;;;;;6183737;23;20429;-80
2023/07/22 10:30:23;;;;;;;1.70;1.60;;;24.90;96.40;;;;;;6191977;23;20594;-78
2023/07/22 10:32:55;;;;;;;2.80;2.60;;;25.00;96.50;;;;;;6191710;23;20407;-83
2023/07/22 10:41:41;;;;;;;1.87;1.77;;;25.60;94.00;;;;;;6192963;23;20416;-78
2023/07/22 10:44:21;;;;;;;2.60;1.90;;;26.20;94.00;;;;;;6196552;23;20407;-78
2023/07/22 10:47:21;;;;;;;2.07;1.97;;;26.30;92.50;;;;;;6194188;23;20379;-81
2023/07/22 10:50:51;;;;;;;1.97;1.87;;;26.40;91.80;;;;;;6197458;23;20473;-78
2023/07/22 10:53:52;;;;;;;2.87;2.10;;;26.90;91.40;;;;;;6190594;23;20418;-78
2023/07/22 10:56:28;;;;;;;1.67;1.57;;;27.20;91.90;;;;;;6158758;23;20838;-81
2023/07/22 10:59:02;;;;;;;1.70;1.60;;;27.30;90.90;;;;;;6189323;23;20439;-80
2023/07/22 11:01:41;;;;;;;1.67;1.57;;;27.40;89.80;;;;;;6188603;23;20485;-81
2023/07/22 11:04:38;;;;;;;1.93;1.77;;;27.80;90.00;;;;;;6189915;23;20518;-81
2023/07/22 11:07:15;;;;;;;2.50;2.30;;;27.70;90.00;;;;;;6188092;23;20411;-80
2023/07/22 11:09:54;;;;;;;2.23;1.80;;;27.40;89.00;;;;;;6193042;23;20414;-80
2023/07/22 11:12:38;;;;;;;1.60;1.50;;;27.10;89.60;;;;;;6193818;23;20939;-81
2023/07/22 11:15:18;;;;;;;2.40;2.20;;;26.60;89.40;;;;;;6193006;23;20435;-79
2023/07/22 11:17:52;;;;;;;2.10;2.00;;;26.10;91.00;;;;;;6192815;23;20431;-82
2023/07/22 11:20:26;;;;;;;3.07;2.10;;;26.00;91.70;;;;;;6188802;23;20738;-81
2023/07/22 11:22:59;;;;;;;2.10;1.80;;;26.30;91.50;;;;;;6190169;23;20419;-81
2023/07/22 11:25:31;;;;;;;2.07;1.97;;;25.90;91.20;;;;;;6194803;23;20543;-80
2023/07/22 11:28:03;;;;;;;2.00;1.90;;;25.90;91.40;;;;;;6199598;23;20442;-80
2023/07/22 11:30:35;;;;;;;3.33;1.90;;;25.60;92.00;;;;;;6199464;23;20407;-79
2023/07/22 11:33:05;;;;;;;1.97;1.87;;;26.00;91.90;;;;;;6197229;23;20429;-79
2023/07/22 11:35:34;;;;;;;1.67;1.57;;;25.90;91.80;;;;;;6198420;23;20428;-81
2023/07/22 11:38:04;;;;;;;1.80;1.70;;;25.80;92.30;;;;;;6191784;23;20439;-80
2023/07/22 11:40:34;;;;;;;2.30;1.83;;;25.90;92.50;;;;;;6192543;23;20408;-77
2023/07/22 11:43:01;;;;;;;1.73;1.63;;;25.90;92.70;;;;;;6198804;23;20387;-78
2023/07/22 11:45:29;;;;;;;1.77;1.67;;;26.20;92.30;;;;;;6190710;23;20451;-79
2023/07/22 11:47:57;;;;;;;1.70;1.60;;;26.50;91.70;;;;;;6191432;23;20414;-77
2023/07/22 11:50:40;;;;;;;2.37;2.27;;;26.60;91.30;;;;;;6187871;23;20469;-76
2023/07/22 11:53:11;;;;;;;1.80;1.70;;;27.30;91.60;;;;;;6186862;23;20438;-80
2023/07/22 11:55:42;;;;;;;2.10;2.00;;;27.70;90.50;;;;;;6187326;23;20431;-81
2023/07/22 11:58:15;;;;;;;2.30;2.20;;;27.80;90.30;;;;;;6186230;23;20438;-77
2023/07/22 12:00:46;;;;;;;2.53;2.43;;;28.20;88.70;;;;;;6186650;23;20482;-79
2023/07/22 12:03:18;;;;;;;1.83;1.73;;;28.50;87.50;;;;;;6186226;23;20525;-77
2023/07/22 12:05:49;;;;;;;2.30;2.20;;;28.20;88.00;;;;;;6187005;23;20435;-79
2023/07/22 12:08:24;;;;;;;2.20;2.10;;;28.20;87.50;;;;;;6186114;23;20885;-79
2023/07/22 12:11:03;;;;;;;2.33;2.23;;;28.40;86.80;;;;;;6186032;23;20712;-79
2023/07/22 12:13:37;;;;;;;2.30;2.10;;;28.40;87.70;;;;;;6186957;23;20415;-78
2023/07/22 12:16:15;;;;;;;2.13;1.93;;;28.50;86.40;;;;;;6191594;23;20461;-79
2023/07/22 12:18:46;;;;;;;2.07;1.97;;;28.20;85.50;;;;;;6189939;23;20435;-80
2023/07/22 12:21:15;;;;;;;1.90;1.80;;;28.00;86.30;;;;;;6192629;23;20442;-78
2023/07/22 12:23:48;;;;;;;2.10;1.87;;;28.40;85.90;;;;;;6191083;23;20415;-82
2023/07/22 12:26:20;;;;;;;2.10;1.90;;;28.40;83.60;;;;;;6190752;23;20905;-78
2023/07/22 12:28:52;;;;;;;2.33;2.13;;;28.10;82.40;;;;;;6191111;23;20450;-80
2023/07/22 12:31:22;;;;;;;2.20;2.10;;;28.00;84.00;;;;;;6189953;23;20414;-77
2023/07/22 12:33:55;;;;;;;1.93;1.83;;;28.40;83.70;;;;;;6191521;23;20407;-80
2023/07/22 12:36:24;;;;;;;1.80;1.70;;;28.80;81.60;;;;;;6195195;23;20434;-78
2023/07/22 12:41:40;;;;;;;1.83;1.73;;;29.40;79.00;;;;;;6187295;23;20458;-79
2023/07/22 12:52:40;;;;;;;1.97;1.77;;;29.60;74.40;;;;;;6177556;23;20482;-79
2023/07/22 12:55:21;;;;;;;2.23;2.03;;;29.20;72.90;;;;;;6189002;23;20418;-78
2023/07/22 12:57:51;;;;;;;2.00;1.90;;;28.80;74.20;;;;;;6188654;23;20411;-78
2023/07/22 13:00:24;;;;;;;2.40;2.20;;;28.10;75.40;;;;;;6188011;23;20419;-78
2023/07/22 13:02:52;;;;;;;2.40;2.20;;;27.60;76.60;;;;;;6191018;23;20411;-78
2023/07/22 13:05:20;;;;;;;1.90;1.80;;;27.70;76.60;;;;;;6193071;23;20487;-78
2023/07/22 13:07:48;;;;;;;1.90;1.80;;;28.40;76.30;;;;;;6192345;23;20490;-79
2023/07/22 13:10:28;;;;;;;3.27;2.10;;;28.80;75.50;;;;;;6194522;23;20403;-79
2023/07/22 13:12:59;;;;;;;2.77;2.40;;;28.40;75.50;;;;;;6195094;23;20407;-79
2023/07/22 13:15:29;;;;;;;3.10;2.30;;;27.70;77.20;;;;;;6195381;23;21085;-78
2023/07/22 13:18:13;;;;;;;2.60;2.40;;;27.70;78.00;;;;;;6194858;23;20411;-80
2023/07/22 13:20:41;;;;;;;2.47;2.20;;;27.90;76.50;;;;;;6202394;23;20399;-79
2023/07/22 13:23:15;;;;;;;2.60;2.40;;;28.10;76.20;;;;;;6202298;23;20422;-78
2023/07/22 13:25:52;;;;;;;2.57;2.37;;;28.30;76.10;;;;;;6208109;23;20437;-78
2023/07/22 13:28:27;;;;;;;2.70;2.50;;;28.60;74.40;;;;;;6208727;23;20437;-78
2023/07/22 13:30:56;;;;;;;2.73;2.53;;;28.70;72.40;;;;;;6205778;23;20861;-79
2023/07/22 13:33:26;;;;;;;2.47;2.37;;;28.90;72.70;;;;;;6206457;23;20446;-81
2023/07/22 13:36:16;;;;;;;2.10;2.00;;;29.00;72.50;;;;;;6205826;23;20439;-81
2023/07/22 13:38:43;;;;;;;2.20;1.90;;;28.40;73.30;;;;;;6202873;23;20435;-80
2023/07/22 13:41:13;;;;;;;3.13;2.93;;;28.00;73.50;;;;;;6206669;23;20437;-80
2023/07/22 13:43:43;;;;;;;2.50;2.30;;;28.20;74.30;;;;;;6203903;23;20438;-79
2023/07/22 13:46:13;;;;;;;4.43;2.30;;;28.50;74.30;;;;;;6201831;23;20857;-77
2023/07/22 13:48:41;;;;;;;2.73;2.40;;;28.80;73.70;;;;;;6197010;23;20407;-78
2023/07/22 13:51:08;;;;;;;2.60;2.40;;;29.00;73.20;;;;;;6198181;23;20400;-79
2023/07/22 13:53:36;;;;;;;2.83;2.37;;;28.50;73.50;;;;;;6192589;23;20686;-80
2023/07/22 13:56:10;;;;;;;3.70;3.13;;;28.00;75.00;;;;;;6195489;23;20410;-79
2023/07/22 13:58:39;;;;;;;2.47;2.30;;;28.10;74.30;;;;;;6196904;23;20439;-78
2023/07/22 14:01:09;;;;;;;2.50;2.30;;;27.60;73.10;;;;;;6198013;23;20388;-79
2023/07/22 14:03:37;;;;;;;3.20;2.70;;;27.80;73.90;;;;;;6200317;23;20410;-80
2023/07/22 14:06:08;;;;;;;4.10;2.73;;;28.70;73.90;;;;;;6202357;23;20415;-80
2023/07/22 14:08:35;;;;;;;3.20;2.50;;;29.20;72.20;;;;;;6194868;23;20407;-79
2023/07/22 14:11:06;;;;;;;2.80;2.60;;;28.60;72.00;;;;;;6200468;23;20881;-81
2023/07/22 14:13:37;;;;;;;2.53;2.37;;;28.10;72.80;;;;;;6194922;23;20458;-83
2023/07/22 14:16:10;;;;;;;2.50;2.33;;;27.80;73.80;;;;;;6196147;23;20372;-80
2023/07/22 14:18:40;;;;;;;2.27;2.17;;;27.60;74.80;;;;;;6194504;23;20469;-81
2023/07/22 14:21:16;;;;;;;2.50;2.40;;;28.10;73.70;;;;;;6190180;23;20568;-78
2023/07/22 14:23:43;;;;;;;3.23;2.90;;;28.10;74.80;;;;;;6192196;23;20387;-81
2023/07/22 14:26:11;;;;;;;2.67;2.53;;;28.40;72.70;;;;;;6196134;23;20944;-81
2023/07/22 14:28:41;;;;;;;2.83;2.50;;;28.40;72.60;;;;;;6192479;23;20399;-81
2023/07/22 14:31:09;;;;;;;2.83;2.63;;;28.30;71.30;;;;;;6194911;23;20431;-81
2023/07/22 14:33:39;;;;;;;2.57;2.23;;;28.10;71.30;;;;;;6194301;23;20501;-80
2023/07/22 14:36:09;;;;;;;2.67;2.40;;;28.00;73.10;;;;;;6195012;23;20428;-82
2023/07/22 14:38:36;;;;;;;2.80;2.60;;;28.20;73.40;;;;;;6194789;23;20399;-80
2023/07/22 14:41:04;;;;;;;2.33;2.23;;;28.70;73.50;;;;;;6197267;23;20479;-77
2023/07/22 14:43:31;;;;;;;2.83;2.63;;;29.10;72.80;;;;;;6195024;23;20399;-79
2023/07/22 14:46:00;;;;;;;2.87;2.67;;;28.60;74.30;;;;;;6191322;23;21010;-79
2023/07/22 14:48:44;;;;;;;2.80;2.60;;;28.80;73.00;;;;;;6187604;23;20392;-79
2023/07/22 14:51:22;;;;;;;3.07;2.43;;;29.10;72.90;;;;;;6187742;23;20422;-81
2023/07/22 14:54:05;;;;;;;3.30;3.00;;;28.90;71.50;;;;;;6193730;23;20411;-81
2023/07/22 14:56:38;;;;;;;2.67;2.47;;;28.70;69.60;;;;;;6200706;23;20741;-80
2023/07/22 14:59:24;;;;;;;3.13;2.93;;;28.20;70.80;;;;;;6203603;23;20569;-80
2023/07/22 15:02:23;;;;;;;2.77;2.53;;;28.20;72.00;;;;;;6203765;23;20498;-79
2023/07/22 15:04:54;;;;;;;2.97;2.60;;;28.30;71.70;;;;;;6188219;23;20431;-80
2023/07/22 15:07:28;;;;;;;3.10;2.90;;;28.60;70.90;;;;;;6188614;23;20416;-81
2023/07/22 15:10:03;;;;;;;3.43;3.07;;;28.80;71.10;;;;;;6186723;23;20417;-79
2023/07/22 15:12:37;;;;;;;4.27;2.90;;;28.20;69.90;;;;;;6189409;23;20469;-81
2023/07/22 15:15:12;;;;;;;3.73;3.27;;;27.50;70.60;;;;;;6191665;23;20438;-80
2023/07/22 15:17:48;;;;;;;3.20;3.00;;;27.50;71.80;;;;;;6193037;23;20415;-80
2023/07/22 15:20:26;;;;;;;3.20;3.00;;;27.60;71.40;;;;;;6196117;23;20526;-81
2023/07/22 15:23:01;;;;;;;3.20;2.90;;;27.50;72.40;;;;;;6201291;23;20519;-80
2023/07/22 15:25:38;;;;;;;6.63;3.37;;;27.40;73.70;;;;;;6196841;23;20487;-79